sensor_id;sensor_type;location;lat;lon;timestamp;temperature;humidity
59162;DHT22;44942;48.936;8.260;2023-05-14T00:01:38;22.10;53.50
59162;DHT22;44942;48.936;8.260;2023-05-14T00:06:39;22.10;53.50
59162;DHT22;44942;48.936;8.260;2023-05-14T00:11:39;22.10;53.40
59162;DHT22;44942;48.936;8.260;2023-05-14T00:16:40;22.10;53.60
59162;DHT22;44942;48.936;8.260;2023-05-14T00:21:40;22.10;53.50
59162;DHT22;44942;48.936;8.260;2023-05-14T00:26:41;22.10;53.70
59162;DHT22;44942;48.936;8.260;2023-05-14T00:31:41;22.10;53.70
59162;DHT22;44942;48.936;8.260;2023-05-14T00:36:42;22.10;53.70
59162;DHT22;44942;48.936;8.260;2023-05-14T00:41:42;22.10;53.80
59162;DHT22;44942;48.936;8.260;2023-05-14T00:46:43;22.10;53.70
59162;DHT22;44942;48.936;8.260;2023-05-14T00:51:44;22.00;53.40
59162;DHT22;44942;48.936;8.260;2023-05-14T00:56:47;21.90;53.20
59162;DHT22;44942;48.936;8.260;2023-05-14T01:01:48;21.80;53.00
59162;DHT22;44942;48.936;8.260;2023-05-14T01:17:17;21.60;53.00
59162;DHT22;44942;48.936;8.260;2023-05-14T01:22:19;21.50;53.10
59162;DHT22;44942;48.936;8.260;2023-05-14T01:32:36;21.50;53.10
59162;DHT22;44942;48.936;8.260;2023-05-14T01:37:38;21.40;53.10
59162;DHT22;44942;48.936;8.260;2023-05-14T01:42:40;21.30;53.20
59162;DHT22;44942;48.936;8.260;2023-05-14T01:47:41;21.30;53.20
59162;DHT22;44942;48.936;8.260;2023-05-14T01:52:42;21.30;53.30
59162;DHT22;44942;48.936;8.260;2023-05-14T01:57:42;21.20;53.30
59162;DHT22;44942;48.936;8.260;2023-05-14T02:02:43;21.20;53.50
59162;DHT22;44942;48.936;8.260;2023-05-14T02:07:43;21.10;53.60
59162;DHT22;44942;48.936;8.260;2023-05-14T02:12:44;21.10;53.70
59162;DHT22;44942;48.936;8.260;2023-05-14T02:17:45;21.10;53.70
59162;DHT22;44942;48.936;8.260;2023-05-14T02:22:45;21.00;53.70
59162;DHT22;44942;48.936;8.260;2023-05-14T02:27:46;21.00;53.80
59162;DHT22;44942;48.936;8.260;2023-05-14T02:32:46;21.00;53.90
59162;DHT22;44942;48.936;8.260;2023-05-14T02:37:47;20.90;54.00
59162;DHT22;44942;48.936;8.260;2023-05-14T02:42:48;20.90;54.10
59162;DHT22;44942;48.936;8.260;2023-05-14T02:47:48;20.90;54.30
59162;DHT22;44942;48.936;8.260;2023-05-14T02:52:49;20.90;54.40
59162;DHT22;44942;48.936;8.260;2023-05-14T02:57:49;20.80;54.40
59162;DHT22;44942;48.936;8.260;2023-05-14T03:02:52;20.80;54.50
59162;DHT22;44942;48.936;8.260;2023-05-14T03:07:52;20.80;54.50
59162;DHT22;44942;48.936;8.260;2023-05-14T03:12:53;20.70;54.60
59162;DHT22;44942;48.936;8.260;2023-05-14T03:17:53;20.70;54.70
59162;DHT22;44942;48.936;8.260;2023-05-14T03:22:54;20.80;54.80
59162;DHT22;44942;48.936;8.260;2023-05-14T03:27:55;20.90;54.60
59162;DHT22;44942;48.936;8.260;2023-05-14T03:32:56;21.00;54.50
59162;DHT22;44942;48.936;8.260;2023-05-14T03:37:56;21.10;54.50
59162;DHT22;44942;48.936;8.260;2023-05-14T03:42:58;21.10;54.40
59162;DHT22;44942;48.936;8.260;2023-05-14T03:47:59;21.20;54.50
59162;DHT22;44942;48.936;8.260;2023-05-14T03:52:59;21.20;54.50
59162;DHT22;44942;48.936;8.260;2023-05-14T03:58:00;21.30;54.50
59162;DHT22;44942;48.936;8.260;2023-05-14T04:03:01;21.30;54.50
59162;DHT22;44942;48.936;8.260;2023-05-14T04:08:02;21.30;54.40
59162;DHT22;44942;48.936;8.260;2023-05-14T04:13:03;21.30;54.30
59162;DHT22;44942;48.936;8.260;2023-05-14T04:18:03;21.30;54.40
59162;DHT22;44942;48.936;8.260;2023-05-14T04:23:04;21.30;54.40
59162;DHT22;44942;48.936;8.260;2023-05-14T04:28:05;21.40;54.50
59162;DHT22;44942;48.936;8.260;2023-05-14T04:33:05;21.40;54.50
59162;DHT22;44942;48.936;8.260;2023-05-14T04:38:06;21.40;54.50
59162;DHT22;44942;48.936;8.260;2023-05-14T04:43:07;21.40;54.50
59162;DHT22;44942;48.936;8.260;2023-05-14T04:48:07;21.40;54.50
59162;DHT22;44942;48.936;8.260;2023-05-14T04:53:08;21.40;54.60
59162;DHT22;44942;48.936;8.260;2023-05-14T04:58:09;21.40;54.50
59162;DHT22;44942;48.936;8.260;2023-05-14T05:03:09;21.50;54.60
59162;DHT22;44942;48.936;8.260;2023-05-14T05:08:10;21.50;54.50
59162;DHT22;44942;48.936;8.260;2023-05-14T05:13:10;21.50;54.50
59162;DHT22;44942;48.936;8.260;2023-05-14T05:18:11;21.50;54.50
59162;DHT22;44942;48.936;8.260;2023-05-14T05:23:12;21.50;54.60
59162;DHT22;44942;48.936;8.260;2023-05-14T05:28:12;21.50;54.60
59162;DHT22;44942;48.936;8.260;2023-05-14T05:33:13;21.60;54.60
59162;DHT22;44942;48.936;8.260;2023-05-14T05:38:13;21.60;54.60
59162;DHT22;44942;48.936;8.260;2023-05-14T05:43:15;21.60;54.60
59162;DHT22;44942;48.936;8.260;2023-05-14T05:48:16;21.60;54.60
59162;DHT22;44942;48.936;8.260;2023-05-14T05:53:16;21.60;54.60
59162;DHT22;44942;48.936;8.260;2023-05-14T05:58:18;21.60;54.60
59162;DHT22;44942;48.936;8.260;2023-05-14T06:03:18;21.60;54.60
59162;DHT22;44942;48.936;8.260;2023-05-14T06:08:19;21.70;54.70
59162;DHT22;44942;48.936;8.260;2023-05-14T06:13:20;21.60;54.70
59162;DHT22;44942;48.936;8.260;2023-05-14T06:18:20;21.70;54.70
59162;DHT22;44942;48.936;8.260;2023-05-14T06:23:21;21.60;54.70
59162;DHT22;44942;48.936;8.260;2023-05-14T06:28:21;21.70;54.60
59162;DHT22;44942;48.936;8.260;2023-05-14T06:33:22;21.70;54.60
59162;DHT22;44942;48.936;8.260;2023-05-14T06:38:29;21.70;54.70
59162;DHT22;44942;48.936;8.260;2023-05-14T06:43:30;21.70;55.00
59162;DHT22;44942;48.936;8.260;2023-05-14T06:48:31;21.60;53.50
59162;DHT22;44942;48.936;8.260;2023-05-14T06:53:31;21.50;53.00
59162;DHT22;44942;48.936;8.260;2023-05-14T06:58:32;21.50;52.80
59162;DHT22;44942;48.936;8.260;2023-05-14T07:03:32;21.40;52.50
59162;DHT22;44942;48.936;8.260;2023-05-14T07:08:33;21.50;53.20
59162;DHT22;44942;48.936;8.260;2023-05-14T07:13:33;21.40;52.60
59162;DHT22;44942;48.936;8.260;2023-05-14T07:18:34;21.40;52.60
59162;DHT22;44942;48.936;8.260;2023-05-14T07:23:35;21.40;53.10
59162;DHT22;44942;48.936;8.260;2023-05-14T07:28:37;21.30;52.20
59162;DHT22;44942;48.936;8.260;2023-05-14T07:33:38;21.30;52.40
59162;DHT22;44942;48.936;8.260;2023-05-14T07:38:38;21.30;52.30
59162;DHT22;44942;48.936;8.260;2023-05-14T07:43:39;21.30;52.20
59162;DHT22;44942;48.936;8.260;2023-05-14T07:48:39;21.30;52.20
59162;DHT22;44942;48.936;8.260;2023-05-14T07:53:40;21.30;52.20
59162;DHT22;44942;48.936;8.260;2023-05-14T07:58:40;21.30;52.30
59162;DHT22;44942;48.936;8.260;2023-05-14T08:03:41;21.30;52.20
59162;DHT22;44942;48.936;8.260;2023-05-14T08:08:42;21.30;52.30
59162;DHT22;44942;48.936;8.260;2023-05-14T08:13:42;21.40;52.20
59162;DHT22;44942;48.936;8.260;2023-05-14T08:18:43;21.40;52.30
59162;DHT22;44942;48.936;8.260;2023-05-14T08:23:43;21.40;52.30
59162;DHT22;44942;48.936;8.260;2023-05-14T08:28:44;21.40;52.30
59162;DHT22;44942;48.936;8.260;2023-05-14T08:33:45;21.40;52.30
59162;DHT22;44942;48.936;8.260;2023-05-14T08:38:45;21.40;52.30
59162;DHT22;44942;48.936;8.260;2023-05-14T08:49:14;21.40;52.50
59162;DHT22;44942;48.936;8.260;2023-05-14T08:54:18;21.40;52.80
59162;DHT22;44942;48.936;8.260;2023-05-14T08:59:19;21.50;53.10
59162;DHT22;44942;48.936;8.260;2023-05-14T09:04:21;21.50;53.20
59162;DHT22;44942;48.936;8.260;2023-05-14T09:09:22;21.50;53.20
59162;DHT22;44942;48.936;8.260;2023-05-14T09:14:23;21.50;53.30
59162;DHT22;44942;48.936;8.260;2023-05-14T09:19:23;21.50;53.30
59162;DHT22;44942;48.936;8.260;2023-05-14T09:24:26;21.50;53.40
59162;DHT22;44942;48.936;8.260;2023-05-14T09:29:28;21.50;53.40
59162;DHT22;44942;48.936;8.260;2023-05-14T09:34:30;21.60;53.30
59162;DHT22;44942;48.936;8.260;2023-05-14T09:39:32;21.60;53.30
59162;DHT22;44942;48.936;8.260;2023-05-14T09:44:33;21.50;53.30
59162;DHT22;44942;48.936;8.260;2023-05-14T09:49:35;21.60;53.40
59162;DHT22;44942;48.936;8.260;2023-05-14T09:54:36;21.60;53.30
59162;DHT22;44942;48.936;8.260;2023-05-14T09:59:37;21.60;53.30
59162;DHT22;44942;48.936;8.260;2023-05-14T10:04:38;21.60;53.30
59162;DHT22;44942;48.936;8.260;2023-05-14T10:09:40;21.60;53.30
59162;DHT22;44942;48.936;8.260;2023-05-14T10:14:46;21.60;53.30
59162;DHT22;44942;48.936;8.260;2023-05-14T10:19:53;21.60;53.30
59162;DHT22;44942;48.936;8.260;2023-05-14T10:24:54;21.60;53.20
59162;DHT22;44942;48.936;8.260;2023-05-14T10:29:55;21.60;53.20
59162;DHT22;44942;48.936;8.260;2023-05-14T10:35:00;21.60;53.10
59162;DHT22;44942;48.936;8.260;2023-05-14T10:40:03;21.60;53.10
59162;DHT22;44942;48.936;8.260;2023-05-14T10:45:13;21.70;53.10
59162;DHT22;44942;48.936;8.260;2023-05-14T10:50:15;21.60;52.70
59162;DHT22;44942;48.936;8.260;2023-05-14T10:55:16;21.70;52.70
59162;DHT22;44942;48.936;8.260;2023-05-14T11:00:17;21.70;52.80
59162;DHT22;44942;48.936;8.260;2023-05-14T11:05:18;21.70;52.70
59162;DHT22;44942;48.936;8.260;2023-05-14T11:10:19;21.70;52.60
59162;DHT22;44942;48.936;8.260;2023-05-14T11:15:22;21.70;52.60
59162;DHT22;44942;48.936;8.260;2023-05-14T11:20:23;21.70;52.40
59162;DHT22;44942;48.936;8.260;2023-05-14T11:25:23;21.70;52.20
59162;DHT22;44942;48.936;8.260;2023-05-14T11:30:25;21.70;52.10
59162;DHT22;44942;48.936;8.260;2023-05-14T11:35:26;21.70;52.20
59162;DHT22;44942;48.936;8.260;2023-05-14T11:40:26;21.70;52.10
59162;DHT22;44942;48.936;8.260;2023-05-14T11:45:27;21.70;52.00
59162;DHT22;44942;48.936;8.260;2023-05-14T11:50:29;21.70;52.00
59162;DHT22;44942;48.936;8.260;2023-05-14T11:55:33;21.70;52.00
59162;DHT22;44942;48.936;8.260;2023-05-14T12:00:34;21.80;52.20
59162;DHT22;44942;48.936;8.260;2023-05-14T12:05:37;21.70;51.80
59162;DHT22;44942;48.936;8.260;2023-05-14T12:10:41;21.70;51.70
59162;DHT22;44942;48.936;8.260;2023-05-14T12:15:55;21.80;51.60
59162;DHT22;44942;48.936;8.260;2023-05-14T12:21:02;21.80;51.70
59162;DHT22;44942;48.936;8.260;2023-05-14T12:26:07;21.80;52.40
59162;DHT22;44942;48.936;8.260;2023-05-14T12:31:08;21.90;52.10
59162;DHT22;44942;48.936;8.260;2023-05-14T12:36:08;21.90;52.10
59162;DHT22;44942;48.936;8.260;2023-05-14T12:41:09;21.90;51.90
59162;DHT22;44942;48.936;8.260;2023-05-14T12:46:10;21.90;51.80
59162;DHT22;44942;48.936;8.260;2023-05-14T12:51:10;21.90;51.70
59162;DHT22;44942;48.936;8.260;2023-05-14T12:56:11;21.90;51.60
59162;DHT22;44942;48.936;8.260;2023-05-14T13:01:12;21.90;51.50
59162;DHT22;44942;48.936;8.260;2023-05-14T13:06:13;21.90;51.30
59162;DHT22;44942;48.936;8.260;2023-05-14T13:11:13;22.00;51.00
59162;DHT22;44942;48.936;8.260;2023-05-14T13:16:14;22.00;50.90
59162;DHT22;44942;48.936;8.260;2023-05-14T13:21:16;22.00;50.80
59162;DHT22;44942;48.936;8.260;2023-05-14T13:26:16;22.00;50.70
59162;DHT22;44942;48.936;8.260;2023-05-14T13:31:17;22.10;50.60
59162;DHT22;44942;48.936;8.260;2023-05-14T13:36:17;22.10;50.50
59162;DHT22;44942;48.936;8.260;2023-05-14T13:41:18;22.10;50.50
59162;DHT22;44942;48.936;8.260;2023-05-14T13:46:18;22.10;50.50
59162;DHT22;44942;48.936;8.260;2023-05-14T13:51:20;22.10;50.60
59162;DHT22;44942;48.936;8.260;2023-05-14T13:56:21;22.10;50.60
59162;DHT22;44942;48.936;8.260;2023-05-14T14:01:22;22.10;50.60
59162;DHT22;44942;48.936;8.260;2023-05-14T14:06:24;22.20;50.70
59162;DHT22;44942;48.936;8.260;2023-05-14T14:11:24;22.20;50.80
59162;DHT22;44942;48.936;8.260;2023-05-14T14:16:25;22.20;50.60
59162;DHT22;44942;48.936;8.260;2023-05-14T14:21:26;22.20;50.40
59162;DHT22;44942;48.936;8.260;2023-05-14T14:26:26;22.30;50.40
59162;DHT22;44942;48.936;8.260;2023-05-14T14:31:28;22.30;50.30
59162;DHT22;44942;48.936;8.260;2023-05-14T14:36:29;22.30;50.20
59162;DHT22;44942;48.936;8.260;2023-05-14T14:41:30;22.30;50.10
59162;DHT22;44942;48.936;8.260;2023-05-14T14:46:31;22.30;50.00
59162;DHT22;44942;48.936;8.260;2023-05-14T14:51:31;22.30;49.80
59162;DHT22;44942;48.936;8.260;2023-05-14T14:56:32;22.30;49.70
59162;DHT22;44942;48.936;8.260;2023-05-14T15:01:35;22.40;49.70
59162;DHT22;44942;48.936;8.260;2023-05-14T15:06:36;22.40;49.60
59162;DHT22;44942;48.936;8.260;2023-05-14T15:11:39;22.40;49.50
59162;DHT22;44942;48.936;8.260;2023-05-14T15:16:40;22.50;49.40
59162;DHT22;44942;48.936;8.260;2023-05-14T15:21:41;22.50;49.30
59162;DHT22;44942;48.936;8.260;2023-05-14T15:26:42;22.50;49.60
59162;DHT22;44942;48.936;8.260;2023-05-14T15:31:43;22.50;49.80
59162;DHT22;44942;48.936;8.260;2023-05-14T15:36:44;22.60;49.90
59162;DHT22;44942;48.936;8.260;2023-05-14T15:41:45;22.60;50.00
59162;DHT22;44942;48.936;8.260;2023-05-14T15:46:45;22.60;50.00
59162;DHT22;44942;48.936;8.260;2023-05-14T15:51:46;22.70;49.80
59162;DHT22;44942;48.936;8.260;2023-05-14T15:56:47;22.70;49.60
59162;DHT22;44942;48.936;8.260;2023-05-14T16:01:48;22.70;49.30
59162;DHT22;44942;48.936;8.260;2023-05-14T16:06:50;22.80;49.30
59162;DHT22;44942;48.936;8.260;2023-05-14T16:11:50;22.80;49.30
59162;DHT22;44942;48.936;8.260;2023-05-14T16:16:52;22.80;49.30
59162;DHT22;44942;48.936;8.260;2023-05-14T16:21:53;22.90;49.40
59162;DHT22;44942;48.936;8.260;2023-05-14T16:26:54;22.80;49.40
59162;DHT22;44942;48.936;8.260;2023-05-14T16:31:55;22.90;49.60
59162;DHT22;44942;48.936;8.260;2023-05-14T16:36:55;22.90;49.40
59162;DHT22;44942;48.936;8.260;2023-05-14T16:41:56;23.00;49.40
59162;DHT22;44942;48.936;8.260;2023-05-14T16:46:56;23.00;49.20
59162;DHT22;44942;48.936;8.260;2023-05-14T16:51:57;23.00;49.40
59162;DHT22;44942;48.936;8.260;2023-05-14T16:56:57;23.00;49.40
59162;DHT22;44942;48.936;8.260;2023-05-14T17:01:58;23.00;49.40
59162;DHT22;44942;48.936;8.260;2023-05-14T17:06:58;23.00;49.60
59162;DHT22;44942;48.936;8.260;2023-05-14T17:12:00;23.00;49.70
59162;DHT22;44942;48.936;8.260;2023-05-14T17:17:01;23.00;49.80
59162;DHT22;44942;48.936;8.260;2023-05-14T17:22:01;23.00;49.80
59162;DHT22;44942;48.936;8.260;2023-05-14T17:27:05;22.90;49.90
59162;DHT22;44942;48.936;8.260;2023-05-14T17:32:06;22.90;50.00
59162;DHT22;44942;48.936;8.260;2023-05-14T17:37:07;22.90;50.00
59162;DHT22;44942;48.936;8.260;2023-05-14T17:42:07;22.90;50.00
59162;DHT22;44942;48.936;8.260;2023-05-14T17:47:08;22.90;49.90
59162;DHT22;44942;48.936;8.260;2023-05-14T17:52:09;22.90;49.60
59162;DHT22;44942;48.936;8.260;2023-05-14T17:57:10;22.90;49.50
59162;DHT22;44942;48.936;8.260;2023-05-14T18:02:10;22.80;49.40
59162;DHT22;44942;48.936;8.260;2023-05-14T18:07:11;22.80;49.30
59162;DHT22;44942;48.936;8.260;2023-05-14T18:12:11;22.80;49.30
59162;DHT22;44942;48.936;8.260;2023-05-14T18:17:12;22.80;49.50
59162;DHT22;44942;48.936;8.260;2023-05-14T18:22:12;22.80;49.60
59162;DHT22;44942;48.936;8.260;2023-05-14T18:27:13;22.70;49.50
59162;DHT22;44942;48.936;8.260;2023-05-14T18:32:14;22.70;49.40
59162;DHT22;44942;48.936;8.260;2023-05-14T18:37:14;22.70;49.50
59162;DHT22;44942;48.936;8.260;2023-05-14T18:42:15;22.70;49.50
59162;DHT22;44942;48.936;8.260;2023-05-14T18:47:18;22.70;49.40
59162;DHT22;44942;48.936;8.260;2023-05-14T18:52:18;22.70;49.40
59162;DHT22;44942;48.936;8.260;2023-05-14T18:57:19;22.70;49.60
59162;DHT22;44942;48.936;8.260;2023-05-14T19:02:20;22.70;49.60
59162;DHT22;44942;48.936;8.260;2023-05-14T19:07:21;22.70;49.70
59162;DHT22;44942;48.936;8.260;2023-05-14T19:12:21;22.70;49.70
59162;DHT22;44942;48.936;8.260;2023-05-14T19:17:23;22.70;49.70
59162;DHT22;44942;48.936;8.260;2023-05-14T19:22:23;22.70;49.80
59162;DHT22;44942;48.936;8.260;2023-05-14T19:27:24;22.70;49.90
59162;DHT22;44942;48.936;8.260;2023-05-14T19:32:25;22.70;49.90
59162;DHT22;44942;48.936;8.260;2023-05-14T19:37:26;22.70;50.00
59162;DHT22;44942;48.936;8.260;2023-05-14T19:42:27;22.70;50.10
59162;DHT22;44942;48.936;8.260;2023-05-14T19:47:27;22.70;50.20
59162;DHT22;44942;48.936;8.260;2023-05-14T19:52:28;22.70;50.30
59162;DHT22;44942;48.936;8.260;2023-05-14T19:57:29;22.70;50.50
59162;DHT22;44942;48.936;8.260;2023-05-14T20:02:29;22.70;50.50
59162;DHT22;44942;48.936;8.260;2023-05-14T20:07:31;22.70;50.70
59162;DHT22;44942;48.936;8.260;2023-05-14T20:12:32;22.70;50.70
59162;DHT22;44942;48.936;8.260;2023-05-14T20:17:33;22.70;50.80
59162;DHT22;44942;48.936;8.260;2023-05-14T20:22:33;22.70;50.90
59162;DHT22;44942;48.936;8.260;2023-05-14T20:27:34;22.70;50.90
59162;DHT22;44942;48.936;8.260;2023-05-14T20:32:35;22.70;51.00
59162;DHT22;44942;48.936;8.260;2023-05-14T20:37:35;22.70;51.00
59162;DHT22;44942;48.936;8.260;2023-05-14T20:42:37;22.70;51.10
59162;DHT22;44942;48.936;8.260;2023-05-14T20:47:39;22.70;51.00
59162;DHT22;44942;48.936;8.260;2023-05-14T20:52:39;22.70;51.10
59162;DHT22;44942;48.936;8.260;2023-05-14T20:57:40;22.70;51.00
59162;DHT22;44942;48.936;8.260;2023-05-14T21:02:41;22.70;51.00
59162;DHT22;44942;48.936;8.260;2023-05-14T21:07:42;22.70;51.00
59162;DHT22;44942;48.936;8.260;2023-05-14T21:12:42;22.70;51.00
59162;DHT22;44942;48.936;8.260;2023-05-14T21:17:43;22.70;50.90
59162;DHT22;44942;48.936;8.260;2023-05-14T21:22:43;22.70;51.00
59162;DHT22;44942;48.936;8.260;2023-05-14T21:27:44;22.60;50.90
59162;DHT22;44942;48.936;8.260;2023-05-14T21:32:45;22.70;51.00
59162;DHT22;44942;48.936;8.260;2023-05-14T21:37:45;22.60;51.00
59162;DHT22;44942;48.936;8.260;2023-05-14T21:42:46;22.60;50.90
59162;DHT22;44942;48.936;8.260;2023-05-14T21:47:46;22.60;51.00
59162;DHT22;44942;48.936;8.260;2023-05-14T21:52:47;22.60;51.00
59162;DHT22;44942;48.936;8.260;2023-05-14T21:57:47;22.60;51.00
59162;DHT22;44942;48.936;8.260;2023-05-14T22:02:50;22.60;51.00
59162;DHT22;44942;48.936;8.260;2023-05-14T22:07:51;22.50;51.00
59162;DHT22;44942;48.936;8.260;2023-05-14T22:12:51;22.50;51.00
59162;DHT22;44942;48.936;8.260;2023-05-14T22:17:52;22.50;51.00
59162;DHT22;44942;48.936;8.260;2023-05-14T22:22:52;22.50;51.00
59162;DHT22;44942;48.936;8.260;2023-05-14T22:27:53;22.50;51.00
59162;DHT22;44942;48.936;8.260;2023-05-14T22:32:54;22.50;51.00
59162;DHT22;44942;48.936;8.260;2023-05-14T22:37:54;22.50;51.70
59162;DHT22;44942;48.936;8.260;2023-05-14T22:42:55;22.50;51.00
59162;DHT22;44942;48.936;8.260;2023-05-14T22:47:55;22.50;51.10
59162;DHT22;44942;48.936;8.260;2023-05-14T22:52:56;22.50;51.20
59162;DHT22;44942;48.936;8.260;2023-05-14T22:57:56;22.40;51.10
59162;DHT22;44942;48.936;8.260;2023-05-14T23:02:57;22.40;51.10
59162;DHT22;44942;48.936;8.260;2023-05-14T23:07:58;22.40;51.20
59162;DHT22;44942;48.936;8.260;2023-05-14T23:12:58;22.40;51.20
59162;DHT22;44942;48.936;8.260;2023-05-14T23:17:59;22.40;51.20
59162;DHT22;44942;48.936;8.260;2023-05-14T23:23:00;22.40;51.20
59162;DHT22;44942;48.936;8.260;2023-05-14T23:28:00;22.40;51.20
59162;DHT22;44942;48.936;8.260;2023-05-14T23:33:01;22.40;51.20
59162;DHT22;44942;48.936;8.260;2023-05-14T23:38:03;22.40;51.20
59162;DHT22;44942;48.936;8.260;2023-05-14T23:43:06;22.30;51.10
59162;DHT22;44942;48.936;8.260;2023-05-14T23:48:07;22.40;51.20
59162;DHT22;44942;48.936;8.260;2023-05-14T23:53:07;22.30;51.10
59162;DHT22;44942;48.936;8.260;2023-05-14T23:58:08;22.30;51.10
